Terminal Aerodrome Forecast
Issued by NWS

Home | Current Version | Previous Version | Text Only | Print | Product List | Glossary On
Versions: 1 2 3 4 5 6 7 8 9 10 11 12 13 14 15 16 17 18
000
FTUS46 KPDT 300520
TAFALW
TAF
KALW 300520Z 3006/3106 20007KT P6SM SCT050 BKN100
      TEMPO 3006/3007 -SHRA
     FM301800 24010KT P6SM SCT060 BKN120=

USA.gov is the U.S. government's official web portal to all federal, state and local government web resources and services.